Time;durP1;ratioP1;P1;durP2;ratioP2;P2;SDS_P1;SDS_P2;PMS_P1;PMS_P2;Temp;Humidity;BMP_temperature;BMP_pressure;BME280_temperature;BME280_humidity;BME280_pressure;Samples;Min_cycle;Max_cycle;Signal;HPM_P1;HPM_P2
2021/12/11 00:00:52;;;;;;;23.92;11.70;;;1.90;98.60;;;-0.68;100.00;99382.44;5051175;28;20449;-86
2021/12/11 00:03:25;;;;;;;22.65;10.93;;;1.90;98.60;;;-0.73;100.00;99388.16;5050681;28;20059;-86
2021/12/11 00:05:55;;;;;;;21.77;11.27;;;1.90;98.70;;;-0.74;100.00;99394.50;5068264;28;20556;-86
2021/12/11 00:08:29;;;;;;;26.67;11.32;;;1.90;98.80;;;-0.73;100.00;99393.50;5052687;28;20505;-86
2021/12/11 00:11:04;;;;;;;20.85;11.02;;;1.90;98.90;;;-0.70;100.00;99397.75;5070772;28;20040;-86
2021/12/11 00:13:36;;;;;;;22.08;11.00;;;1.90;98.90;;;-0.68;100.00;99404.63;5070560;28;20131;-86
2021/12/11 00:16:07;;;;;;;22.13;11.10;;;1.90;99.00;;;-0.69;100.00;99410.09;5051924;28;20087;-86
2021/12/11 00:18:34;;;;;;;23.80;11.60;;;1.90;99.00;;;-0.72;100.00;99413.91;5070451;28;20072;-86
2021/12/11 00:21:06;;;;;;;22.30;11.00;;;1.90;99.10;;;-0.77;100.00;99424.16;5070344;28;20068;-86
2021/12/11 00:23:39;;;;;;;20.20;10.70;;;1.90;99.10;;;-0.76;100.00;99425.88;5070482;28;20072;-86
2021/12/11 00:26:13;;;;;;;24.73;11.40;;;1.90;99.10;;;-0.72;100.00;99437.09;5070493;28;20137;-86
2021/12/11 00:28:49;;;;;;;22.40;10.52;;;1.90;99.20;;;-0.80;100.00;99438.66;5070640;28;20044;-85
2021/12/11 00:31:18;;;;;;;18.70;10.07;;;1.90;99.00;;;-0.76;100.00;99451.72;5070183;28;20075;-86
2021/12/11 00:33:47;;;;;;;18.17;10.57;;;1.80;98.80;;;-0.76;100.00;99449.03;5052060;28;20032;-85
2021/12/11 00:36:19;;;;;;;19.90;10.77;;;1.90;99.10;;;-0.76;100.00;99455.25;5070373;28;20044;-86
2021/12/11 00:38:50;;;;;;;17.92;10.13;;;1.90;99.40;;;-0.71;100.00;99452.16;5070444;28;20064;-86
2021/12/11 00:41:22;;;;;;;23.85;11.45;;;1.80;99.40;;;-0.72;100.00;99469.16;5051850;28;20044;-86
2021/12/11 00:43:50;;;;;;;21.80;10.88;;;1.80;99.40;;;-0.78;100.00;99467.91;5070254;28;20080;-86
2021/12/11 00:46:26;;;;;;;20.92;11.13;;;1.80;99.30;;;-0.82;100.00;99472.69;5070256;28;20102;-86
2021/12/11 00:48:54;;;;;;;21.63;11.13;;;1.80;99.30;;;-0.82;100.00;99472.69;5068476;28;20041;-86
2021/12/11 00:51:23;;;;;;;26.65;11.95;;;1.70;99.40;;;-0.77;100.00;99479.44;5031747;28;20041;-86
2021/12/11 00:53:55;;;;;;;26.92;11.95;;;1.70;99.60;;;-0.79;100.00;99484.91;5031977;28;20194;-86
2021/12/11 00:56:30;;;;;;;20.48;11.80;;;1.70;99.70;;;-0.75;100.00;99483.63;5049905;28;20068;-86
2021/12/11 00:59:01;;;;;;;26.30;12.35;;;1.80;99.70;;;-0.76;100.00;99498.00;5049930;28;20571;-86
2021/12/11 01:01:32;;;;;;;22.23;11.80;;;1.80;99.60;;;-0.74;100.00;99500.50;5049532;28;20072;-86
2021/12/11 01:04:02;;;;;;;;;;;1.80;99.80;;;-0.73;100.00;99503.03;5050186;28;20128;-87
2021/12/11 01:06:35;;;;;;;23.50;12.57;;;1.80;99.90;;;-0.74;100.00;99504.03;5031762;28;19966;-86
2021/12/11 01:09:12;;;;;;;23.02;12.63;;;1.80;99.80;;;-0.67;100.00;99518.50;5049714;28;20045;-86
2021/12/11 01:11:46;;;;;;;26.98;12.23;;;1.80;99.80;;;-0.66;100.00;99519.38;5049477;28;20041;-86
2021/12/11 01:14:24;;;;;;;28.42;12.50;;;1.80;99.90;;;-0.68;100.00;99532.03;5049454;28;20045;-84
2021/12/11 01:17:02;;;;;;;29.02;13.25;;;1.80;99.90;;;-0.63;100.00;99529.78;5049578;28;20056;-84
2021/12/11 01:19:36;;;;;;;24.83;12.98;;;1.80;99.90;;;-0.65;100.00;99537.09;5031605;28;20059;-84
2021/12/11 01:22:11;;;;;;;26.60;12.07;;;1.80;99.90;;;-0.63;100.00;99552.03;5031450;28;20045;-84
2021/12/11 01:24:44;;;;;;;27.95;13.02;;;1.80;99.90;;;-0.67;100.00;99563.09;5031451;28;20060;-84
2021/12/11 01:27:19;;;;;;;18.67;11.75;;;1.80;99.90;;;-0.77;100.00;99576.44;5048492;28;20049;-84
2021/12/11 01:29:49;;;;;;;26.25;12.45;;;1.80;99.80;;;-0.77;100.00;99587.13;5049287;28;20775;-84
2021/12/11 01:32:17;;;;;;;20.75;11.82;;;1.80;99.90;;;-0.77;100.00;99592.47;5030788;28;20579;-83
2021/12/11 01:34:46;;;;;;;25.77;12.93;;;1.80;99.90;;;-0.75;100.00;99600.34;5049014;28;20048;-84
2021/12/11 01:37:16;;;;;;;23.02;13.55;;;1.80;99.90;;;-0.73;100.00;99604.56;5049215;28;20045;-84
2021/12/11 01:39:45;;;;;;;24.75;13.45;;;1.80;99.90;;;-0.70;100.00;99608.81;5052403;28;20074;-84
2021/12/11 01:42:19;;;;;;;27.30;13.65;;;1.80;99.90;;;-0.68;100.00;99612.19;5068811;28;20044;-84
2021/12/11 01:44:50;;;;;;;26.05;13.13;;;1.80;99.90;;;-0.71;100.00;99617.78;5068957;28;20071;-84
2021/12/11 01:47:21;;;;;;;25.35;13.57;;;1.80;99.90;;;-0.66;100.00;99627.09;5050148;28;20095;-84
2021/12/11 01:49:55;;;;;;;30.42;14.65;;;1.80;99.90;;;-0.66;100.00;99628.94;5049217;28;20076;-84
2021/12/11 01:52:35;;;;;;;20.67;13.57;;;1.80;99.90;;;-0.64;100.00;99634.97;5048567;28;20127;-84
2021/12/11 01:55:09;;;;;;;25.53;13.90;;;1.80;99.90;;;-0.62;100.00;99643.72;5049094;28;20049;-85
2021/12/11 01:57:38;;;;;;;30.35;13.85;;;1.80;99.90;;;-0.66;100.00;99643.13;5049124;28;20279;-84
2021/12/11 02:00:14;;;;;;;33.05;14.30;;;1.80;99.90;;;-0.66;100.00;99648.47;5046948;28;20432;-84
2021/12/11 02:02:47;;;;;;;30.58;14.75;;;1.80;99.90;;;-0.68;100.00;99649.59;5048420;28;20073;-83
2021/12/11 02:05:21;;;;;;;25.15;14.20;;;1.70;99.90;;;-0.67;100.00;99665.47;5042775;28;20056;-84
2021/12/11 02:07:52;;;;;;;25.83;13.88;;;1.80;99.90;;;-0.61;100.00;99667.63;5068648;28;20048;-84
2021/12/11 02:10:25;;;;;;;27.17;13.98;;;1.70;99.90;;;-0.72;100.00;99667.72;5050583;28;20049;-84
2021/12/11 02:12:56;;;;;;;27.38;14.55;;;1.70;99.90;;;-0.75;100.00;99677.81;5068178;28;20127;-84
2021/12/11 02:15:31;;;;;;;29.83;14.23;;;1.70;99.90;;;-0.77;100.00;99687.78;5068349;28;20040;-84
2021/12/11 02:18:09;;;;;;;29.05;15.20;;;1.70;99.90;;;-0.79;100.00;99688.75;5068791;28;20048;-85
2021/12/11 02:20:42;;;;;;;26.83;13.82;;;1.70;99.90;;;-0.77;100.00;99704.66;5068521;28;20036;-84
2021/12/11 02:23:15;;;;;;;27.02;14.93;;;1.70;99.90;;;-0.78;100.00;99713.66;5068270;28;20175;-84
2021/12/11 02:25:50;;;;;;;28.13;14.30;;;1.80;99.90;;;-0.85;100.00;99715.16;5068447;28;20541;-84
2021/12/11 02:28:23;;;;;;;33.30;15.50;;;1.70;99.90;;;-0.87;100.00;99720.63;5050252;28;20079;-84
2021/12/11 02:31:06;;;;;;;30.58;14.82;;;1.70;99.90;;;-0.90;100.00;99710.19;5068380;28;20110;-84
2021/12/11 02:33:41;;;;;;;29.38;14.68;;;1.70;99.90;;;-0.86;100.00;99722.31;5068392;28;20102;-84
2021/12/11 02:36:14;;;;;;;29.20;15.02;;;1.70;99.90;;;-0.88;100.00;99726.94;5068177;28;20071;-84
2021/12/11 02:38:48;;;;;;;35.15;15.68;;;1.70;99.90;;;-0.92;100.00;99728.19;5049867;28;20180;-84
2021/12/11 02:41:22;;;;;;;27.83;14.85;;;1.60;99.90;;;-0.83;100.00;99722.06;5043018;28;20148;-84
2021/12/11 02:43:55;;;;;;;34.75;16.40;;;1.70;99.90;;;-0.87;100.00;99731.31;5026907;28;20200;-84
2021/12/11 02:46:27;;;;;;;34.42;16.80;;;1.60;99.90;;;-0.86;100.00;99743.66;5026913;28;20049;-84
2021/12/11 02:49:01;;;;;;;35.70;16.20;;;1.70;99.90;;;-0.79;100.00;99741.34;5031132;28;20068;-84
2021/12/11 02:51:35;;;;;;;32.78;16.45;;;1.60;99.90;;;-0.74;100.00;99746.28;5010209;28;20049;-84
2021/12/11 02:54:10;;;;;;;29.63;15.43;;;1.60;99.90;;;-0.67;100.00;99752.78;5028403;28;20449;-84
2021/12/11 02:56:44;;;;;;;29.83;14.48;;;1.80;99.90;;;-0.65;100.00;99750.84;5010407;28;20588;-84
2021/12/11 02:59:17;;;;;;;29.52;14.75;;;1.60;99.90;;;-0.64;100.00;99753.38;5028210;28;20081;-84
2021/12/11 03:01:51;;;;;;;32.90;15.40;;;1.60;99.90;;;-0.62;100.00;99761.28;5027909;28;20050;-84
2021/12/11 03:04:31;;;;;;;28.33;14.57;;;1.60;99.90;;;-0.59;100.00;99761.03;5045033;28;20083;-84
2021/12/11 03:07:01;;;;;;;31.30;15.18;;;1.60;99.90;;;-0.52;100.00;99756.81;5047915;28;20045;-84
2021/12/11 03:09:35;;;;;;;33.60;15.03;;;1.60;99.90;;;-0.54;100.00;99757.94;5047875;28;20053;-84
2021/12/11 03:12:08;;;;;;;29.30;14.75;;;1.70;99.90;;;-0.54;100.00;99764.13;5029551;28;20985;-84
2021/12/11 03:14:37;;;;;;;32.88;16.15;;;1.70;99.90;;;-0.54;100.00;99768.63;5047778;28;20856;-84
2021/12/11 03:17:05;;;;;;;32.92;15.90;;;1.70;99.90;;;-0.48;100.00;99774.28;5048087;28;20037;-84
2021/12/11 03:19:36;;;;;;;33.75;16.20;;;1.70;99.90;;;-0.51;100.00;99774.56;5047776;28;20076;-84
2021/12/11 03:22:07;;;;;;;;;;;1.70;99.90;;;-0.47;100.00;99780.50;5029765;28;20059;-84
2021/12/11 03:24:37;;;;;;;36.00;15.65;;;1.70;99.90;;;-0.46;100.00;99782.19;5047701;28;20461;-84
2021/12/11 03:27:07;;;;;;;34.35;15.90;;;1.70;99.90;;;-0.42;100.00;99787.16;5047785;28;20151;-84
2021/12/11 03:29:36;;;;;;;36.13;16.90;;;1.80;99.90;;;-0.36;100.00;99793.78;5047679;28;20132;-84
2021/12/11 03:32:08;;;;;;;36.78;18.13;;;1.80;99.90;;;-0.44;100.00;99807.81;5047418;28;20155;-84
2021/12/11 03:34:37;;;;;;;37.47;18.55;;;1.80;99.90;;;-0.41;100.00;99815.56;5047463;28;20111;-84
2021/12/11 03:37:08;;;;;;;39.83;17.70;;;1.80;99.90;;;-0.36;100.00;99820.53;5047888;28;20041;-84
2021/12/11 03:39:45;;;;;;;38.97;18.02;;;1.90;99.90;;;-0.31;100.00;99822.78;5049912;28;20505;-84
2021/12/11 03:42:17;;;;;;;42.63;19.08;;;1.80;99.90;;;-0.26;100.00;99820.56;5049225;28;20500;-85
2021/12/11 03:44:45;;;;;;;39.75;18.80;;;1.90;99.90;;;-0.24;100.00;99826.63;5049284;28;20587;-84
2021/12/11 03:47:20;;;;;;;51.88;21.23;;;1.90;99.90;;;-0.21;100.00;99834.38;5067578;28;20172;-84
2021/12/11 03:49:47;;;;;;;49.17;20.92;;;1.90;99.90;;;-0.13;100.00;99837.25;5068182;28;20158;-84
2021/12/11 03:52:16;;;;;;;59.28;19.15;;;2.00;99.90;;;-0.17;100.00;99838.50;5059295;28;20124;-84
2021/12/11 03:54:48;;;;;;;59.53;22.13;;;2.00;99.90;;;-0.14;100.00;99842.72;5050891;28;20501;-83
2021/12/11 03:57:22;;;;;;;62.55;20.83;;;2.00;99.90;;;-0.18;100.00;99842.13;5051069;28;20122;-84
2021/12/11 03:59:52;;;;;;;66.78;20.95;;;2.00;99.90;;;-0.15;100.00;99846.38;5051110;28;20583;-84
2021/12/11 04:02:25;;;;;;;46.22;19.65;;;2.00;99.90;;;-0.11;100.00;99851.34;5050644;28;20037;-84
2021/12/11 04:04:55;;;;;;;58.83;20.73;;;2.00;99.90;;;-0.05;100.00;99852.63;5050771;28;20471;-84
2021/12/11 04:07:29;;;;;;;58.30;20.55;;;2.00;99.90;;;-0.05;100.00;99860.66;5050959;28;20131;-84
2021/12/11 04:09:58;;;;;;;56.22;21.40;;;2.00;99.90;;;-0.07;100.00;99857.28;5050779;28;20047;-83
2021/12/11 04:12:27;;;;;;;78.50;23.08;;;2.10;99.90;;;-0.09;100.00;99870.78;5050732;28;20128;-84
2021/12/11 04:14:56;;;;;;;62.42;23.00;;;2.10;99.90;;;-0.10;100.00;99869.06;5074064;22;20049;-79
2021/12/11 04:17:26;;;;;;;80.97;22.15;;;2.10;99.90;;;-0.07;100.00;99874.16;5070499;28;20052;-79
2021/12/11 04:19:58;;;;;;;65.20;24.02;;;2.10;99.90;;;-0.02;100.00;99879.97;5070424;28;20056;-79
2021/12/11 04:22:26;;;;;;;;;;;2.10;99.90;;;0.02;100.00;99885.91;5052569;28;20050;-79
2021/12/11 04:24:54;;;;;;;55.00;22.75;;;2.10;99.90;;;0.07;100.00;99888.16;5070397;28;19924;-79
2021/12/11 04:27:25;;;;;;;85.20;24.20;;;2.10;99.90;;;-0.06;100.00;99885.69;5070214;28;20047;-79
2021/12/11 04:29:54;;;;;;;56.63;22.75;;;2.10;99.90;;;-0.01;100.00;99884.31;5070265;28;20040;-79
2021/12/11 04:32:26;;;;;;;54.35;23.60;;;2.10;99.90;;;0.06;100.00;99894.47;5069704;28;20518;-79
2021/12/11 04:34:54;;;;;;;79.95;24.65;;;2.10;99.90;;;0.03;100.00;99898.28;5069890;28;20044;-79
2021/12/11 04:37:28;;;;;;;71.60;24.33;;;2.20;99.90;;;-0.09;100.00;99896.69;5070049;28;20036;-79
2021/12/11 04:40:02;;;;;;;66.20;24.77;;;2.20;99.90;;;0.05;100.00;99893.66;5074885;28;20039;-79
2021/12/11 04:42:47;;;;;;;54.60;24.30;;;2.20;99.90;;;0.09;100.00;99900.41;5089942;28;20092;-79
2021/12/11 04:45:19;;;;;;;60.17;23.38;;;2.20;99.90;;;0.07;100.00;99904.22;5089617;28;20507;-79
2021/12/11 04:47:51;;;;;;;88.00;25.63;;;2.20;99.90;;;0.07;100.00;99910.41;5089947;28;20435;-79
2021/12/11 04:50:40;;;;;;;58.35;23.17;;;2.20;99.90;;;0.03;100.00;99905.47;5069803;28;20498;-79
2021/12/11 04:53:23;;;;;;;79.50;25.65;;;2.20;99.90;;;0.17;100.00;99905.97;5069555;28;20041;-79
2021/12/11 04:56:03;;;;;;;75.47;25.70;;;2.20;99.90;;;0.24;100.00;99911.63;5069898;28;20044;-79
2021/12/11 04:58:53;;;;;;;76.40;24.67;;;2.20;99.90;;;0.28;100.00;99917.56;5069682;28;20048;-79
2021/12/11 05:01:43;;;;;;;121.18;27.88;;;2.30;99.90;;;0.20;100.00;99920.91;5069125;28;20048;-79
2021/12/11 05:04:35;;;;;;;88.28;24.80;;;2.30;99.90;;;0.19;100.00;99922.75;5069605;28;20048;-79
2021/12/11 05:07:07;;;;;;;;;;;2.30;99.90;;;0.16;100.00;99932.84;5070002;28;20056;-79
2021/12/11 05:09:53;;;;;;;74.25;24.42;;;2.30;99.90;;;0.23;100.00;99939.38;5069432;28;19959;-79
2021/12/11 05:12:32;;;;;;;55.15;23.90;;;2.30;99.90;;;0.31;100.00;99944.91;5068911;28;20044;-79
2021/12/11 05:15:01;;;;;;;56.50;23.20;;;2.30;99.90;;;0.29;100.00;99949.56;5050895;28;20053;-79
2021/12/11 05:17:29;;;;;;;56.92;25.52;;;2.30;99.90;;;0.34;100.00;99958.03;5069386;28;20052;-79
2021/12/11 05:19:56;;;;;;;74.90;26.95;;;2.30;99.90;;;0.34;100.00;99959.84;5069334;28;20056;-79
2021/12/11 05:22:24;;;;;;;68.28;26.48;;;2.30;99.90;;;0.39;100.00;99960.31;5069036;28;20124;-79
2021/12/11 05:24:55;;;;;;;81.75;27.05;;;2.40;99.90;;;0.42;100.00;99964.53;5068941;28;20071;-79
2021/12/11 05:27:24;;;;;;;82.40;28.25;;;2.40;99.90;;;0.36;100.00;99966.78;5069186;28;20052;-79
2021/12/11 05:29:51;;;;;;;83.03;28.75;;;2.40;99.90;;;0.41;100.00;99985.09;5068990;28;20385;-79
2021/12/11 05:32:25;;;;;;;66.35;28.17;;;2.40;99.90;;;0.46;100.00;99992.72;5068799;28;20059;-79
2021/12/11 05:34:52;;;;;;;81.38;28.38;;;2.40;99.90;;;0.45;100.00;99983.03;5068871;28;20128;-79
2021/12/11 05:37:22;;;;;;;70.75;27.95;;;2.50;99.90;;;0.45;100.00;99994.56;5068898;28;20139;-79
2021/12/11 05:39:49;;;;;;;98.55;31.75;;;2.50;99.90;;;0.39;100.00;100006.66;5072893;28;20051;-79
2021/12/11 05:42:17;;;;;;;100.55;31.85;;;2.50;99.90;;;0.38;100.00;100010.31;5088748;28;20044;-79
2021/12/11 05:44:45;;;;;;;85.28;31.13;;;2.50;99.90;;;0.42;100.00;100012.72;5088901;28;20072;-79
2021/12/11 05:47:12;;;;;;;124.03;36.90;;;2.50;99.90;;;0.35;100.00;100018.59;5088887;28;20140;-79
2021/12/11 05:49:43;;;;;;;97.00;33.05;;;2.50;99.90;;;0.41;100.00;100019.06;5088821;28;20044;-79
2021/12/11 05:52:12;;;;;;;102.95;34.60;;;2.50;99.90;;;0.47;100.00;100027.41;5088637;28;20040;-79
2021/12/11 05:54:43;;;;;;;88.90;33.67;;;2.60;99.90;;;0.54;100.00;100039.28;5088674;28;20106;-79
2021/12/11 05:57:13;;;;;;;115.50;37.22;;;2.60;99.90;;;0.58;100.00;100039.88;5089035;28;20044;-79
2021/12/11 05:59:44;;;;;;;100.40;35.90;;;2.60;99.90;;;0.62;100.00;100046.66;5086308;28;20043;-79
2021/12/11 06:02:18;;;;;;;99.60;34.97;;;2.60;99.90;;;0.63;100.00;100053.72;5066335;28;20127;-79
2021/12/11 06:04:50;;;;;;;93.90;32.78;;;2.60;99.90;;;0.69;100.00;100060.38;5050498;28;20390;-79
2021/12/11 06:07:21;;;;;;;98.53;33.50;;;2.60;99.90;;;0.74;100.00;100059.00;5068565;28;20044;-79
2021/12/11 06:09:57;;;;;;;96.20;32.70;;;2.60;99.90;;;0.67;100.00;100060.50;5068681;28;20044;-79
2021/12/11 06:12:24;;;;;;;86.55;32.90;;;2.80;99.90;;;0.75;100.00;100060.69;5049407;28;20048;-79
2021/12/11 06:14:53;;;;;;;92.57;32.33;;;2.60;99.90;;;0.82;100.00;100065.50;5067951;28;20048;-79
2021/12/11 06:17:28;;;;;;;99.45;33.55;;;2.60;99.90;;;0.74;100.00;100071.53;5068455;28;20127;-79
2021/12/11 06:19:59;;;;;;;101.35;34.60;;;2.70;99.90;;;0.80;100.00;100086.22;5068443;28;20103;-79
2021/12/11 06:22:31;;;;;;;90.25;34.38;;;2.60;99.90;;;0.84;100.00;100079.59;5068010;28;20626;-79
2021/12/11 06:25:10;;;;;;;102.53;34.38;;;2.70;99.90;;;0.80;100.00;100075.50;5068163;28;20131;-79
2021/12/11 06:27:38;;;;;;;104.72;33.70;;;2.70;99.90;;;0.81;100.00;100082.56;5068284;28;20074;-79
2021/12/11 06:30:07;;;;;;;92.63;31.85;;;2.70;99.90;;;0.84;100.00;100082.28;5068184;28;20044;-79
2021/12/11 06:32:36;;;;;;;104.43;35.90;;;2.70;99.90;;;0.90;100.00;100092.50;5067930;28;20112;-79
2021/12/11 06:35:11;;;;;;;87.07;33.88;;;2.70;99.90;;;0.92;100.00;100095.88;5068342;28;20032;-79
2021/12/11 06:37:38;;;;;;;84.32;32.33;;;2.70;99.90;;;0.96;100.00;100092.81;5068129;28;20158;-79
2021/12/11 06:40:09;;;;;;;89.53;32.05;;;2.70;99.90;;;0.97;100.00;100101.69;5074452;28;20124;-79
2021/12/11 06:42:36;;;;;;;110.83;35.60;;;2.70;99.90;;;1.00;100.00;100104.09;5088242;28;20063;-79
2021/12/11 06:45:04;;;;;;;97.32;33.72;;;2.80;99.90;;;1.00;100.00;100108.63;5088192;28;20040;-79
2021/12/11 06:47:32;;;;;;;90.28;33.25;;;2.80;99.90;;;1.02;100.00;100104.81;5088534;28;20040;-79
2021/12/11 06:49:59;;;;;;;84.50;33.78;;;2.80;99.90;;;0.92;100.00;100104.75;5088152;28;20040;-79
2021/12/11 06:52:28;;;;;;;92.03;34.45;;;2.80;99.90;;;0.99;100.00;100121.19;5087835;28;20072;-79
2021/12/11 06:54:56;;;;;;;86.20;35.17;;;2.80;99.90;;;1.00;100.00;100135.41;5087909;28;20130;-79
2021/12/11 06:57:24;;;;;;;85.53;34.63;;;2.80;99.90;;;1.01;100.00;100137.09;5072649;28;20711;-79
2021/12/11 06:59:52;;;;;;;86.18;34.05;;;2.80;99.90;;;1.00;100.00;100136.25;5067848;28;20044;-79
2021/12/11 07:02:21;;;;;;;90.05;34.63;;;2.80;99.90;;;0.95;100.00;100154.53;5067583;28;20123;-79
2021/12/11 07:04:54;;;;;;;83.05;35.50;;;2.80;99.90;;;0.96;100.00;100153.59;5067684;28;20122;-79
2021/12/11 07:07:24;;;;;;;87.30;34.58;;;2.90;99.90;;;1.00;100.00;100165.72;5067913;28;20055;-79
2021/12/11 07:09:55;;;;;;;84.83;35.87;;;2.90;99.90;;;0.96;100.00;100170.50;5067864;28;20075;-79
2021/12/11 07:12:22;;;;;;;;;;;2.90;99.90;;;0.88;100.00;100169.47;5068330;28;20068;-79
2021/12/11 07:14:50;;;;;;;87.25;34.90;;;3.10;99.90;;;0.84;100.00;100178.72;5067612;28;20027;-79
2021/12/11 07:17:17;;;;;;;84.13;34.03;;;2.90;99.90;;;0.82;100.00;100175.31;5067695;28;20131;-79
2021/12/11 07:19:45;;;;;;;92.80;35.95;;;2.90;99.90;;;0.74;100.00;100179.53;5067783;28;20045;-79
2021/12/11 07:22:14;;;;;;;87.20;34.42;;;2.90;99.90;;;0.82;100.00;100180.69;5067614;28;20040;-79
2021/12/11 07:24:51;;;;;;;85.82;34.85;;;2.90;99.90;;;0.83;100.00;100185.06;5067620;28;20068;-78
2021/12/11 07:27:19;;;;;;;81.75;34.22;;;2.90;99.90;;;0.86;100.00;100198.22;5053430;28;20143;-87
2021/12/11 07:29:47;;;;;;;70.68;32.42;;;2.90;99.90;;;0.94;100.00;100193.06;5084328;28;20393;-80
2021/12/11 07:32:14;;;;;;;78.78;32.85;;;2.90;99.90;;;0.88;100.00;100206.97;5091477;28;20147;-80
2021/12/11 07:34:43;;;;;;;75.18;32.10;;;2.90;99.90;;;0.90;100.00;100210.38;5073089;28;20048;-80
2021/12/11 07:37:10;;;;;;;76.30;31.52;;;2.90;99.90;;;0.89;100.00;100214.03;5091559;28;20523;-78
2021/12/11 07:39:38;;;;;;;69.78;31.90;;;2.90;99.90;;;0.92;100.00;100219.13;5091418;28;20075;-78
2021/12/11 07:42:06;;;;;;;72.35;30.60;;;2.90;99.90;;;0.88;100.00;100218.53;5072831;28;20046;-81
2021/12/11 07:44:38;;;;;;;76.03;32.03;;;2.90;99.90;;;0.98;100.00;100229.31;5091352;28;20496;-78
2021/12/11 07:47:07;;;;;;;75.22;32.03;;;2.90;99.90;;;1.04;100.00;100234.16;5090604;28;20524;-78
2021/12/11 07:49:35;;;;;;;72.32;32.95;;;2.90;99.90;;;1.08;100.00;100232.91;5072775;28;20071;-79
2021/12/11 07:52:03;;;;;;;73.82;30.92;;;3.00;99.90;;;1.14;100.00;100240.44;5091048;28;20140;-78
2021/12/11 07:54:30;;;;;;;81.50;32.70;;;3.00;99.90;;;1.15;100.00;100246.66;5091406;28;20059;-79
2021/12/11 07:56:58;;;;;;;79.82;34.67;;;3.00;99.90;;;1.09;100.00;100248.00;5091228;28;20462;-78
2021/12/11 07:59:26;;;;;;;68.93;30.83;;;3.00;99.90;;;1.13;100.00;100260.16;5091537;28;20407;-79
2021/12/11 08:01:55;;;;;;;75.85;31.70;;;3.10;99.90;;;1.13;100.00;100262.84;5090970;28;20143;-78
2021/12/11 08:04:23;;;;;;;67.97;31.45;;;3.00;99.90;;;1.16;100.00;100262.59;5071795;28;20076;-78
2021/12/11 08:06:52;;;;;;;68.22;30.00;;;3.00;99.90;;;1.23;100.00;100264.75;5070866;28;20044;-78
2021/12/11 08:09:23;;;;;;;65.85;29.55;;;3.10;99.90;;;1.29;100.00;100269.59;5070819;28;20128;-78
2021/12/11 08:11:51;;;;;;;;;;;3.10;99.90;;;1.35;100.00;100275.28;5071054;28;20106;-78
2021/12/11 08:14:21;;;;;;;74.35;29.45;;;3.10;99.90;;;1.41;100.00;100275.72;5070522;28;19931;-78
2021/12/11 08:16:52;;;;;;;77.85;30.92;;;3.10;99.90;;;1.45;100.00;100278.03;5070802;28;20119;-78
2021/12/11 08:19:25;;;;;;;65.22;29.42;;;3.10;99.90;;;1.53;100.00;100278.22;5070818;28;20585;-79
2021/12/11 08:21:57;;;;;;;73.35;31.30;;;3.10;99.90;;;1.51;100.00;100280.19;5070239;28;20083;-79
2021/12/11 08:24:27;;;;;;;68.93;32.55;;;3.20;99.90;;;1.58;100.00;100291.25;5070522;28;20101;-79
2021/12/11 08:26:58;;;;;;;82.95;33.65;;;3.30;99.90;;;1.58;100.00;100285.00;5070752;28;20135;-78
2021/12/11 08:29:25;;;;;;;;;;;3.30;99.90;;;1.61;100.00;100290.13;5062864;28;20143;-78
2021/12/11 08:31:58;;;;;;;68.78;30.35;;;3.30;99.90;;;1.60;100.00;100300.00;5090521;28;19923;-79
2021/12/11 08:34:29;;;;;;;82.05;31.80;;;3.30;99.90;;;1.67;100.00;100301.16;5090547;28;20581;-80
2021/12/11 08:36:58;;;;;;;85.65;34.70;;;3.30;99.90;;;1.62;100.00;100298.03;5090226;28;20043;-78
2021/12/11 08:39:27;;;;;;;79.60;33.13;;;3.40;99.90;;;1.68;100.00;100304.69;5090420;28;20066;-80
2021/12/11 08:41:56;;;;;;;78.25;33.70;;;3.40;99.90;;;1.71;100.00;100309.78;5090188;28;20483;-79
2021/12/11 08:44:25;;;;;;;76.90;35.03;;;3.40;99.90;;;1.78;100.00;100308.28;5090293;28;20040;-79
2021/12/11 08:46:55;;;;;;;79.28;34.10;;;3.50;99.90;;;1.85;100.00;100309.44;5090142;28;20040;-78
2021/12/11 08:49:29;;;;;;;76.88;32.50;;;3.50;99.90;;;1.90;100.00;100320.63;5071936;28;20138;-78
2021/12/11 08:52:01;;;;;;;88.00;34.55;;;3.50;99.90;;;1.93;100.00;100317.66;5089846;28;20075;-78
2021/12/11 08:54:31;;;;;;;76.13;32.92;;;3.60;99.90;;;2.04;100.00;100326.63;5071861;28;20151;-77
2021/12/11 08:57:04;;;;;;;83.05;33.35;;;3.70;99.90;;;2.14;100.00;100325.69;5072484;28;20123;-79
2021/12/11 08:59:33;;;;;;;87.45;33.60;;;3.60;99.90;;;2.21;100.00;100330.50;5051950;28;20147;-79
2021/12/11 09:02:07;;;;;;;77.20;32.83;;;3.70;99.90;;;2.27;100.00;100332.66;5069560;28;20097;-80
2021/12/11 09:04:43;;;;;;;72.20;31.13;;;3.70;99.90;;;2.28;100.00;100332.50;5068575;28;20060;-79
2021/12/11 09:07:16;;;;;;;75.97;32.20;;;3.70;99.90;;;2.34;100.00;100337.34;5051621;28;20467;-79
2021/12/11 09:09:47;;;;;;;82.57;32.30;;;3.70;99.90;;;2.35;100.00;100335.50;5069774;28;20124;-79
2021/12/11 09:12:20;;;;;;;84.30;33.35;;;3.80;99.90;;;2.30;100.00;100335.94;5069370;28;20082;-79
2021/12/11 09:14:53;;;;;;;90.03;34.60;;;3.80;99.90;;;2.37;100.00;100346.13;5069363;28;20222;-79
2021/12/11 09:17:27;;;;;;;85.68;35.40;;;3.80;99.90;;;2.42;100.00;100351.91;5069789;28;20044;-79
2021/12/11 09:20:06;;;;;;;94.25;35.42;;;3.80;99.90;;;2.39;100.00;100360.25;5069124;28;20080;-79
2021/12/11 09:22:38;;;;;;;87.65;34.50;;;3.90;99.90;;;2.38;100.00;100372.84;5068818;28;20048;-79
2021/12/11 09:25:12;;;;;;;87.55;34.42;;;3.90;99.90;;;2.40;100.00;100362.81;5068872;28;20131;-80
2021/12/11 09:27:47;;;;;;;85.53;34.65;;;3.90;99.90;;;2.38;100.00;100361.22;5069276;28;20044;-79
2021/12/11 09:30:24;;;;;;;84.03;33.38;;;3.90;99.90;;;2.41;100.00;100375.25;5068432;28;20457;-79
2021/12/11 09:32:58;;;;;;;88.20;36.28;;;3.90;99.90;;;2.48;100.00;100379.09;5068972;28;20064;-78
2021/12/11 09:35:33;;;;;;;88.55;36.53;;;4.00;99.90;;;2.52;100.00;100377.00;5068840;28;20131;-79
2021/12/11 09:38:08;;;;;;;90.63;35.50;;;4.00;99.90;;;2.59;100.00;100375.47;5069114;28;20098;-82
2021/12/11 09:40:54;;;;;;;78.57;33.60;;;4.00;99.90;;;2.62;100.00;100380.56;5079370;28;20119;-77
2021/12/11 09:43:45;;;;;;;81.30;35.40;;;4.00;99.90;;;2.69;100.00;100375.50;5088819;28;20496;-78
2021/12/11 09:46:19;;;;;;;91.30;35.28;;;4.10;99.90;;;2.69;100.00;100379.03;5050457;28;20048;-79
2021/12/11 09:48:48;;;;;;;90.25;35.28;;;4.10;99.90;;;2.67;100.00;100374.78;5059450;28;20068;-79
2021/12/11 09:51:21;;;;;;;87.28;34.75;;;4.20;99.90;;;2.64;100.00;100391.16;5050318;28;20049;-79
2021/12/11 09:53:53;;;;;;;83.90;33.83;;;4.20;99.90;;;2.68;100.00;100388.06;5068964;28;20048;-79
2021/12/11 09:56:33;;;;;;;79.75;34.17;;;4.20;99.90;;;2.77;100.00;100390.94;5066545;28;20055;-79
2021/12/11 09:59:09;;;;;;;76.15;32.25;;;4.20;99.90;;;2.80;100.00;100388.81;5068980;28;20126;-79
2021/12/11 10:01:42;;;;;;;88.22;33.38;;;4.20;99.90;;;2.86;100.00;100395.47;5045243;28;20076;-80
2021/12/11 10:04:17;;;;;;;90.30;33.65;;;4.30;99.90;;;2.88;100.00;100398.88;5073768;28;20067;-79
2021/12/11 10:07:13;;;;;;;89.05;35.03;;;4.20;99.90;;;2.90;100.00;100391.53;5076769;28;20046;-78
2021/12/11 10:09:51;;;;;;;84.00;34.15;;;4.30;99.90;;;2.89;100.00;100397.88;5076017;28;20052;-78
2021/12/11 10:12:23;;;;;;;86.25;35.13;;;4.30;99.90;;;2.92;100.00;100400.31;5088343;28;20116;-77
2021/12/11 10:14:57;;;;;;;84.50;33.95;;;4.30;99.90;;;2.90;100.00;100405.81;5069653;28;20052;-80
2021/12/11 10:17:30;;;;;;;86.40;34.80;;;4.30;99.90;;;2.92;100.00;100400.31;5088662;28;20113;-78
2021/12/11 10:20:02;;;;;;;85.68;34.92;;;4.30;99.90;;;2.93;100.00;100412.75;5087402;28;20127;-76
2021/12/11 10:22:34;;;;;;;78.57;34.22;;;4.30;99.90;;;2.94;100.00;100411.75;5071415;28;20122;-76
2021/12/11 10:25:02;;;;;;;91.38;36.75;;;4.30;99.90;;;2.94;100.00;100419.81;5079757;28;20452;-76
2021/12/11 10:27:33;;;;;;;82.10;34.72;;;4.30;99.90;;;2.95;100.00;100421.50;5088556;28;20119;-77